Time;durP1;ratioP1;P1;durP2;ratioP2;P2;SDS_P1;SDS_P2;PMS_P1;PMS_P2;Temp;Humidity;BMP_temperature;BMP_pressure;BME280_temperature;BME280_humidity;BME280_pressure;Samples;Min_cycle;Max_cycle;Signal;HPM_P1;HPM_P2
2022/03/09 00:01:28;;;;;;;16.00;8.90;;;;;;;3.78;62.54;100977.66;105602;1281;25054;-74
2022/03/09 00:03:56;;;;;;;19.20;10.20;;;;;;;3.75;62.37;100977.39;105253;1282;22882;-77
2022/03/09 00:06:23;;;;;;;17.60;10.60;;;;;;;3.74;62.42;100975.30;105492;1281;24314;-75
2022/03/09 00:08:50;;;;;;;19.30;11.30;;;;;;;3.72;62.37;100974.90;105623;1281;22735;-70
2022/03/09 00:11:18;;;;;;;18.80;9.50;;;;;;;3.74;62.55;100971.45;105265;1281;22634;-70
2022/03/09 00:13:45;;;;;;;16.20;10.20;;;;;;;3.69;62.65;100976.20;105242;1281;24398;-70
2022/03/09 00:16:12;;;;;;;18.10;10.40;;;;;;;3.63;62.91;100975.33;105638;1281;22606;-78
2022/03/09 00:18:40;;;;;;;18.10;10.90;;;;;;;3.54;62.96;100970.89;105456;1281;24961;-70
2022/03/09 00:21:08;;;;;;;19.30;11.60;;;;;;;3.54;63.04;100969.48;105529;1281;25263;-70
2022/03/09 00:23:35;;;;;;;18.60;11.50;;;;;;;3.54;63.18;100968.08;104794;1288;22575;-72
2022/03/09 00:26:04;;;;;;;21.30;10.90;;;;;;;3.53;63.14;100973.30;105056;1287;25335;-72
2022/03/09 00:28:32;;;;;;;18.30;10.80;;;;;;;3.50;63.26;100963.80;104840;1287;25499;-72
2022/03/09 00:31:02;;;;;;;17.10;9.50;;;;;;;3.56;63.27;100972.50;104997;1287;24315;-73
2022/03/09 00:33:32;;;;;;;18.10;10.00;;;;;;;3.52;63.28;100973.62;104983;1287;25328;-72
2022/03/09 00:35:59;;;;;;;17.00;11.00;;;;;;;3.51;63.40;100973.59;105000;1287;22747;-72
2022/03/09 00:38:27;;;;;;;18.90;11.10;;;;;;;3.56;63.39;100973.04;105007;1287;24241;-73
2022/03/09 00:40:55;;;;;;;28.90;12.50;;;;;;;3.52;63.33;100969.26;104990;1286;22885;-74
2022/03/09 00:43:22;;;;;;;18.80;10.60;;;;;;;3.59;63.34;100970.85;105256;1282;25379;-72
2022/03/09 00:45:50;;;;;;;22.00;11.30;;;;;;;3.64;63.23;100972.57;105194;1281;25414;-75
2022/03/09 00:48:16;;;;;;;19.30;11.20;;;;;;;3.63;63.23;100968.54;104750;1287;22608;-77
2022/03/09 00:50:43;;;;;;;18.30;10.70;;;;;;;3.60;63.10;100964.79;104906;1287;24525;-75
2022/03/09 00:53:10;;;;;;;20.30;12.40;;;;;;;3.58;63.23;100961.59;104703;1287;24161;-74
2022/03/09 00:55:38;;;;;;;15.20;9.50;;;;;;;3.67;63.24;100967.27;105022;1287;22548;-72
2022/03/09 00:58:05;;;;;;;17.60;10.40;;;;;;;3.70;63.09;100963.86;104938;1287;22563;-73
2022/03/09 01:00:32;;;;;;;20.60;11.70;;;;;;;3.68;62.89;100964.87;104779;1287;25449;-75
2022/03/09 01:02:59;;;;;;;26.90;12.00;;;;;;;3.66;62.94;100967.23;104757;1286;26606;-73
2022/03/09 01:05:26;;;;;;;17.80;10.80;;;;;;;3.60;62.99;100960.61;104515;1287;22607;-71
2022/03/09 01:07:53;;;;;;;19.30;10.50;;;;;;;3.61;63.09;100965.68;105100;1284;22557;-69
2022/03/09 01:10:20;;;;;;;20.20;11.30;;;;;;;3.60;63.19;100963.39;105365;1281;22699;-72
2022/03/09 01:12:48;;;;;;;19.20;10.50;;;;;;;3.67;63.32;100963.61;105188;1281;22711;-74
2022/03/09 01:15:16;;;;;;;20.40;11.40;;;;;;;3.73;63.10;100961.50;105144;1282;25441;-72
2022/03/09 01:17:44;;;;;;;15.30;9.60;;;;;;;3.75;62.96;100958.42;105277;1282;22780;-73
2022/03/09 01:20:13;;;;;;;18.70;9.30;;;;;;;3.76;62.95;100950.06;105126;1282;22562;-76
2022/03/09 01:22:40;;;;;;;21.50;12.70;;;;;;;3.71;62.88;100952.71;105310;1282;22547;-76
2022/03/09 01:25:08;;;;;;;22.70;12.00;;;;;;;3.65;63.06;100950.80;105252;1282;22629;-77
2022/03/09 01:27:36;;;;;;;25.10;12.90;;;;;;;3.58;63.06;100950.80;105371;1282;25372;-73
2022/03/09 01:30:04;;;;;;;19.80;10.40;;;;;;;3.55;63.27;100951.42;105404;1281;25663;-72
2022/03/09 01:32:30;;;;;;;17.90;10.40;;;;;;;3.53;63.31;100952.91;105405;1284;24278;-75
2022/03/09 01:34:58;;;;;;;22.80;11.90;;;;;;;3.53;63.38;100952.56;105423;1282;25439;-72
2022/03/09 01:37:24;;;;;;;19.60;10.60;;;;;;;3.48;63.26;100952.95;105751;1284;25675;-73
2022/03/09 01:39:52;;;;;;;25.50;12.60;;;;;;;3.43;63.46;100943.60;105405;1284;25379;-75
2022/03/09 01:42:19;;;;;;;26.90;12.90;;;;;;;3.48;63.52;100945.64;105407;1282;22571;-80
2022/03/09 01:44:46;;;;;;;21.30;11.70;;;;;;;3.56;63.51;100947.79;105311;1282;24296;-71
2022/03/09 01:47:15;;;;;;;18.90;11.30;;;;;;;3.64;63.35;100946.10;105344;1282;25894;-71
2022/03/09 01:49:43;;;;;;;20.50;11.10;;;;;;;3.67;63.30;100948.61;105430;1282;25405;-71
2022/03/09 01:52:12;;;;;;;24.80;12.40;;;;;;;3.68;63.23;100950.05;105385;1282;22644;-73
2022/03/09 01:54:39;;;;;;;21.10;11.30;;;;;;;3.70;63.05;100950.98;105390;1282;22697;-73
2022/03/09 01:57:07;;;;;;;21.00;11.90;;;;;;;3.72;63.19;100943.71;105328;1282;24133;-72
2022/03/09 01:59:34;;;;;;;20.60;12.40;;;;;;;3.77;63.09;100949.08;105415;1282;24232;-73
2022/03/09 02:02:01;;;;;;;20.20;12.00;;;;;;;3.75;62.97;100949.00;105339;1282;22888;-74
2022/03/09 02:04:29;;;;;;;27.80;13.40;;;;;;;3.74;62.97;100949.48;105335;1282;24241;-72
2022/03/09 02:06:57;;;;;;;18.70;10.50;;;;;;;3.77;63.03;100948.02;105469;1281;26683;-72
2022/03/09 02:09:44;;;;;;;18.40;11.10;;;;;;;3.74;62.94;100937.30;105478;1281;23460;-74
2022/03/09 02:12:18;;;;;;;18.30;10.00;;;;;;;3.76;62.90;100932.98;105470;1281;24429;-71
2022/03/09 02:14:49;;;;;;;19.90;12.90;;;;;;;3.74;62.75;100927.20;105536;1281;22576;-72
2022/03/09 02:17:18;;;;;;;18.40;9.80;;;;;;;3.73;62.70;100924.38;105489;1282;22697;-73
2022/03/09 02:19:49;;;;;;;18.70;10.10;;;;;;;3.60;62.65;100926.83;105515;1281;23977;-69
2022/03/09 02:22:19;;;;;;;19.20;10.90;;;;;;;3.51;62.64;100922.21;105654;1281;22626;-74
2022/03/09 02:24:47;;;;;;;19.40;11.10;;;;;;;3.45;62.74;100922.06;105533;1282;26521;-74
2022/03/09 02:27:15;;;;;;;19.00;11.30;;;;;;;3.41;62.87;100921.93;104771;1290;25280;-73
2022/03/09 02:29:42;;;;;;;19.30;11.10;;;;;;;3.46;62.89;100922.26;104519;1291;22714;-70
2022/03/09 02:32:09;;;;;;;16.00;9.40;;;;;;;3.57;62.87;100925.34;104568;1290;22605;-70
2022/03/09 02:34:36;;;;;;;17.80;9.80;;;;;;;3.61;62.57;100924.76;104647;1290;23971;-69
2022/03/09 02:37:06;;;;;;;18.00;10.10;;;;;;;3.65;62.36;100929.08;104487;1290;25263;-71
2022/03/09 02:39:33;;;;;;;16.00;9.60;;;;;;;3.67;62.36;100928.95;104591;1289;22601;-70
2022/03/09 02:42:01;;;;;;;17.30;9.30;;;;;;;3.66;62.17;100926.84;104453;1290;22576;-69
2022/03/09 02:44:28;;;;;;;16.70;10.50;;;;;;;3.69;62.20;100930.20;104685;1290;22653;-73
2022/03/09 02:46:56;;;;;;;18.40;10.00;;;;;;;3.75;62.19;100928.09;105244;1282;22606;-70
2022/03/09 02:49:23;;;;;;;15.50;9.60;;;;;;;3.80;62.03;100932.27;105306;1282;22582;-71
2022/03/09 02:51:50;;;;;;;16.00;9.60;;;;;;;3.83;61.95;100936.00;105306;1282;25448;-71
2022/03/09 02:54:17;;;;;;;13.90;9.40;;;;;;;3.82;61.75;100925.85;105723;1281;24232;-72
2022/03/09 02:56:44;;;;;;;21.90;9.60;;;;;;;3.85;61.64;100929.59;105514;1281;22571;-72
2022/03/09 02:59:12;;;;;;;14.20;8.60;;;;;;;3.80;61.52;100928.24;105632;1281;24221;-72
2022/03/09 03:01:40;;;;;;;16.20;9.80;;;;;;;3.76;61.40;100922.89;105734;1281;22550;-69
2022/03/09 03:04:07;;;;;;;18.70;10.10;;;;;;;3.75;61.47;100919.56;105320;1282;22584;-70
2022/03/09 03:06:35;;;;;;;20.10;11.30;;;;;;;3.77;61.50;100919.79;105653;1281;25322;-69
2022/03/09 03:09:02;;;;;;;19.90;11.10;;;;;;;3.78;61.36;100920.52;104744;1287;22534;-71
2022/03/09 03:11:29;;;;;;;17.00;9.20;;;;;;;3.76;61.32;100918.89;104750;1288;25605;-75
2022/03/09 03:13:56;;;;;;;15.40;9.70;;;;;;;3.70;61.19;100917.02;104711;1288;24471;-70
2022/03/09 03:16:23;;;;;;;14.90;8.60;;;;;;;3.69;61.35;100917.14;104700;1288;25407;-73
2022/03/09 03:18:50;;;;;;;15.20;8.30;;;;;;;3.65;61.34;100918.45;104698;1288;23362;-70
2022/03/09 03:21:17;;;;;;;14.30;9.00;;;;;;;3.65;61.37;100916.17;104829;1287;24298;-70
2022/03/09 03:23:47;;;;;;;14.00;8.30;;;;;;;3.69;61.37;100914.86;104872;1287;23127;-69
2022/03/09 03:26:14;;;;;;;14.30;9.00;;;;;;;3.68;61.36;100915.73;104695;1287;22557;-70
2022/03/09 03:28:41;;;;;;;14.50;9.60;;;;;;;3.67;61.57;100914.98;105245;1281;23930;-71
2022/03/09 03:31:08;;;;;;;12.70;8.20;;;;;;;3.69;61.55;100917.67;105284;1282;22549;-71
2022/03/09 03:33:36;;;;;;;12.90;8.20;;;;;;;3.68;61.47;100912.95;105445;1282;22656;-69
2022/03/09 03:36:03;;;;;;;13.30;8.80;;;;;;;3.63;61.57;100911.59;104995;1287;25257;-69
2022/03/09 03:38:31;;;;;;;16.60;7.40;;;;;;;3.60;61.66;100911.32;104938;1287;22709;-80
2022/03/09 03:40:58;;;;;;;14.70;9.30;;;;;;;3.55;61.71;100912.73;104609;1288;25382;-74
2022/03/09 03:43:25;;;;;;;15.40;9.20;;;;;;;3.56;61.93;100910.17;105312;1285;26488;-72
2022/03/09 03:45:53;;;;;;;17.40;9.90;;;;;;;3.60;61.84;100906.27;105332;1284;22553;-72
2022/03/09 03:48:21;;;;;;;16.30;9.30;;;;;;;3.61;61.84;100901.24;104818;1285;24106;-71
2022/03/09 03:50:48;;;;;;;17.50;10.10;;;;;;;3.58;61.86;100901.33;105153;1284;22604;-74
2022/03/09 03:53:15;;;;;;;17.40;9.60;;;;;;;3.55;61.96;100901.44;104907;1284;24392;-72
2022/03/09 03:55:44;;;;;;;15.60;10.00;;;;;;;3.54;62.05;100904.52;105440;1282;22548;-71
2022/03/09 03:58:11;;;;;;;16.30;9.90;;;;;;;3.50;62.18;100900.77;105355;1282;22560;-71
2022/03/09 04:00:38;;;;;;;16.30;10.00;;;;;;;3.48;62.23;100897.22;105605;1281;24204;-74
2022/03/09 04:03:05;;;;;;;13.70;8.90;;;;;;;3.55;62.19;100903.50;105572;1281;23881;-71
2022/03/09 04:05:33;;;;;;;15.30;9.80;;;;;;;3.56;62.21;100905.10;105502;1281;25484;-79
2022/03/09 04:08:00;;;;;;;17.10;9.70;;;;;;;3.56;62.26;100908.60;105657;1281;22663;-72
2022/03/09 04:10:27;;;;;;;12.70;6.70;;;;;;;3.56;62.16;100911.38;105432;1282;22562;-72
2022/03/09 04:12:53;;;;;;;14.80;9.30;;;;;;;3.54;62.22;100908.20;105615;1281;24219;-72
2022/03/09 04:15:20;;;;;;;14.80;9.20;;;;;;;3.49;62.25;100906.13;105182;1284;23943;-71
2022/03/09 04:17:47;;;;;;;16.70;10.00;;;;;;;3.48;62.44;100910.30;105521;1281;25372;-68
2022/03/09 04:20:15;;;;;;;15.10;9.80;;;;;;;3.47;62.43;100911.84;105254;1282;25219;-73
2022/03/09 04:22:43;;;;;;;18.40;11.80;;;;;;;3.48;62.57;100914.98;105493;1282;22736;-72
2022/03/09 04:25:12;;;;;;;16.00;9.10;;;;;;;3.53;62.46;100913.39;105482;1281;25504;-71
2022/03/09 04:27:39;;;;;;;17.30;10.90;;;;;;;3.56;62.44;100911.04;105442;1284;22549;-71
2022/03/09 04:30:09;;;;;;;17.00;10.10;;;;;;;3.64;62.29;100908.80;105414;1282;25262;-73
2022/03/09 04:32:37;;;;;;;18.10;10.50;;;;;;;3.63;62.25;100908.45;105353;1282;22606;-81
2022/03/09 04:35:05;;;;;;;17.70;10.60;;;;;;;3.68;62.21;100908.24;105253;1281;26580;-73
2022/03/09 04:37:35;;;;;;;18.70;10.50;;;;;;;3.75;62.10;100904.42;105460;1282;25501;-80
2022/03/09 04:40:05;;;;;;;16.30;9.60;;;;;;;3.80;61.90;100905.58;105427;1281;25266;-73
2022/03/09 04:42:32;;;;;;;19.10;10.70;;;;;;;3.84;61.81;100905.52;105559;1282;24362;-74
2022/03/09 04:44:59;;;;;;;17.70;10.30;;;;;;;3.80;61.59;100901.77;105556;1281;24082;-74
2022/03/09 04:47:26;;;;;;;20.10;11.90;;;;;;;3.72;61.49;100897.71;105657;1281;23993;-69
2022/03/09 04:49:53;;;;;;;16.20;9.30;;;;;;;3.72;61.66;100895.60;105413;1281;26536;-77
2022/03/09 04:52:20;;;;;;;18.80;11.10;;;;;;;3.69;61.56;100899.02;105340;1282;25492;-74
2022/03/09 04:54:47;;;;;;;17.70;11.00;;;;;;;3.70;61.69;100908.64;105223;1282;22586;-75
2022/03/09 04:57:14;;;;;;;17.10;10.50;;;;;;;3.76;61.66;100917.13;105362;1282;22640;-70
2022/03/09 04:59:41;;;;;;;17.10;10.30;;;;;;;3.80;61.72;100919.34;105280;1282;22579;-73
2022/03/09 05:02:09;;;;;;;16.00;10.70;;;;;;;3.87;61.67;100920.95;105440;1281;25546;-72
2022/03/09 05:04:37;;;;;;;17.50;10.80;;;;;;;3.93;61.64;100923.88;105271;1281;26502;-80
2022/03/09 05:07:04;;;;;;;17.30;11.00;;;;;;;3.98;61.57;100926.45;105562;1281;22537;-75
2022/03/09 05:09:32;;;;;;;17.70;10.60;;;;;;;4.04;61.44;100931.65;104936;1287;25384;-72
2022/03/09 05:11:59;;;;;;;17.30;10.90;;;;;;;4.10;61.48;100935.83;104790;1288;25368;-71
2022/03/09 05:14:26;;;;;;;15.10;9.10;;;;;;;4.16;61.58;100936.15;104864;1288;22809;-73
2022/03/09 05:16:53;;;;;;;17.10;11.10;;;;;;;4.20;61.38;100938.52;105040;1287;24244;-75
2022/03/09 05:19:20;;;;;;;15.80;10.60;;;;;;;4.22;61.15;100942.59;104813;1287;23290;-75
2022/03/09 05:21:48;;;;;;;15.80;10.20;;;;;;;4.21;61.07;100945.71;104903;1287;23943;-84
2022/03/09 05:24:35;;;;;;;15.30;10.10;;;;;;;4.16;60.97;100952.73;105305;1286;200940;-77
2022/03/09 05:27:02;;;;;;;18.50;11.20;;;;;;;4.17;61.23;100953.10;105269;1282;22536;-76
2022/03/09 05:29:29;;;;;;;16.30;10.90;;;;;;;4.18;61.07;100957.83;105350;1281;23964;-76
2022/03/09 05:31:56;;;;;;;17.90;11.60;;;;;;;4.16;61.16;100957.97;105482;1281;24932;-79
2022/03/09 05:34:23;;;;;;;19.10;10.90;;;;;;;4.21;61.22;100961.20;105375;1282;22733;-81
2022/03/09 05:36:50;;;;;;;18.90;10.40;;;;;;;4.24;61.11;100963.89;105640;1282;24220;-83
2022/03/09 05:39:17;;;;;;;21.40;11.50;;;;;;;4.23;61.16;100964.74;105639;1282;22556;-79
2022/03/09 05:41:44;;;;;;;20.60;12.10;;;;;;;4.23;61.04;100967.71;104793;1287;22601;-79
2022/03/09 05:44:11;;;;;;;24.10;11.10;;;;;;;4.16;60.99;100969.80;104964;1287;22535;-82
2022/03/09 05:46:38;;;;;;;18.20;11.80;;;;;;;4.16;61.25;100965.81;105588;1290;22652;-85
2022/03/09 05:49:05;;;;;;;20.10;12.00;;;;;;;4.20;61.42;100969.21;104481;1290;22589;-78
2022/03/09 05:51:33;;;;;;;18.30;11.40;;;;;;;4.22;61.22;100968.91;104657;1289;26548;-78
2022/03/09 05:54:00;;;;;;;19.50;11.90;;;;;;;4.19;61.21;100969.70;104584;1290;22589;-78
2022/03/09 05:56:27;;;;;;;18.10;11.60;;;;;;;4.19;61.08;100971.97;104605;1288;22568;-82
2022/03/09 05:58:54;;;;;;;19.10;11.20;;;;;;;4.10;60.93;100968.08;104710;1288;24803;-78
2022/03/09 06:01:21;;;;;;;21.10;12.30;;;;;;;4.07;61.09;100970.28;105357;1281;23936;-77
2022/03/09 06:03:49;;;;;;;19.10;12.30;;;;;;;4.04;61.18;100973.49;105369;1282;22597;-78
2022/03/09 06:06:16;;;;;;;16.00;10.10;;;;;;;4.04;61.02;100978.36;105386;1282;24327;-77
2022/03/09 06:08:43;;;;;;;16.80;10.90;;;;;;;4.00;61.04;100977.73;104499;1291;22720;-73
2022/03/09 06:11:10;;;;;;;17.40;10.30;;;;;;;4.02;61.06;100976.21;104622;1290;24257;-84
2022/03/09 06:13:37;;;;;;;16.00;10.50;;;;;;;4.05;60.91;100975.95;104230;1293;24814;-77
2022/03/09 06:16:04;;;;;;;14.70;9.70;;;;;;;4.09;60.63;100976.41;104340;1292;22560;-77
2022/03/09 06:18:32;;;;;;;14.80;10.10;;;;;;;4.05;60.55;100979.25;104173;1293;25760;-76
2022/03/09 06:20:59;;;;;;;16.10;10.70;;;;;;;4.10;60.63;100980.27;104195;1290;22655;-77
2022/03/09 06:23:26;;;;;;;17.10;10.40;;;;;;;4.12;60.25;100978.41;104330;1293;22696;-77
2022/03/09 06:25:53;;;;;;;21.40;11.40;;;;;;;4.04;60.07;100978.90;104357;1293;24263;-77
2022/03/09 06:28:20;;;;;;;18.60;11.30;;;;;;;4.01;60.14;100982.29;104789;1284;22771;-76
2022/03/09 06:30:47;;;;;;;19.50;10.40;;;;;;;4.04;60.21;100985.33;105190;1285;23283;-77
2022/03/09 06:33:15;;;;;;;18.80;9.20;;;;;;;4.07;59.98;100984.40;105272;1284;24246;-77
2022/03/09 06:35:42;;;;;;;17.40;9.40;;;;;;;4.09;59.86;100984.60;105148;1285;22502;-77
2022/03/09 06:38:12;;;;;;;15.20;9.40;;;;;;;4.12;59.89;100985.58;105271;1284;22541;-84
2022/03/09 06:40:39;;;;;;;19.40;10.30;;;;;;;4.14;59.68;100990.50;105415;1284;22706;-80
2022/03/09 06:43:07;;;;;;;15.00;7.80;;;;;;;4.15;59.57;100989.13;105552;1282;25256;-81
2022/03/09 06:45:34;;;;;;;16.60;8.80;;;;;;;4.12;59.24;100989.23;105558;1282;22531;-83
2022/03/09 06:48:02;;;;;;;15.80;9.90;;;;;;;4.03;59.07;100997.85;105523;1282;22567;-82
2022/03/09 06:50:34;;;;;;;14.20;9.10;;;;;;;4.00;59.30;100995.33;105558;1282;22704;-82
2022/03/09 06:53:02;;;;;;;13.50;7.60;;;;;;;4.05;59.33;100995.99;105482;1282;24423;-82
2022/03/09 06:55:29;;;;;;;17.10;8.30;;;;;;;4.07;59.23;100997.30;105030;1288;22749;-84
2022/03/09 06:57:56;;;;;;;19.20;8.70;;;;;;;4.11;58.99;100996.86;104778;1288;25490;-81
2022/03/09 07:00:22;;;;;;;16.20;9.70;;;;;;;4.18;59.22;100991.64;104709;1287;22581;-81
2022/03/09 07:02:49;;;;;;;14.30;8.10;;;;;;;4.28;58.85;100991.57;104768;1287;22688;-85
2022/03/09 07:05:17;;;;;;;14.30;8.80;;;;;;;4.25;58.40;100994.11;104785;1287;25273;-82
2022/03/09 07:07:44;;;;;;;15.20;9.20;;;;;;;4.22;58.41;100990.88;104830;1288;25260;-82
2022/03/09 07:10:13;;;;;;;13.40;8.60;;;;;;;4.27;58.37;100992.42;104871;1287;22791;-81
2022/03/09 07:12:43;;;;;;;15.30;8.10;;;;;;;4.32;58.36;100990.11;104497;1288;26532;-81
2022/03/09 07:15:11;;;;;;;12.50;7.50;;;;;;;4.43;58.24;100991.06;105329;1282;25372;-83
2022/03/09 07:17:39;;;;;;;13.90;7.50;;;;;;;4.42;57.68;100990.52;105206;1282;24341;-82
2022/03/09 07:20:06;;;;;;;10.60;6.90;;;;;;;4.44;57.72;100988.65;105313;1282;24197;-82
2022/03/09 07:22:39;;;;;;;11.30;6.80;;;;;;;4.48;57.36;100988.23;105411;1282;25478;-84
2022/03/09 07:25:07;;;;;;;11.50;7.00;;;;;;;4.53;57.45;100985.73;105392;1282;22588;-83
2022/03/09 07:27:34;;;;;;;11.10;6.70;;;;;;;4.60;57.14;100982.95;105331;1282;26506;-82
2022/03/09 07:30:01;;;;;;;11.80;7.20;;;;;;;4.65;57.08;100977.13;105423;1282;23994;-83
2022/03/09 07:32:30;;;;;;;9.80;6.40;;;;;;;4.70;56.81;100977.29;105292;1282;22621;-82
2022/03/09 07:35:15;;;;;;;14.30;7.30;;;;;;;4.70;56.39;100977.11;104765;1288;22540;-81
2022/03/09 07:37:43;;;;;;;15.10;7.30;;;;;;;4.66;56.40;100978.04;104804;1288;22551;-84
2022/03/09 07:40:10;;;;;;;13.50;7.00;;;;;;;4.72;56.59;100972.95;105009;1287;23193;-84
2022/03/09 07:42:37;;;;;;;15.70;7.40;;;;;;;4.79;56.47;100968.76;104834;1287;22590;-84
2022/03/09 07:45:07;;;;;;;12.20;6.80;;;;;;;4.89;56.25;100965.84;104992;1287;25675;-82
2022/03/09 07:47:35;;;;;;;11.70;6.10;;;;;;;4.90;56.01;100958.71;105150;1287;22648;-83
2022/03/09 07:50:07;;;;;;;11.50;6.60;;;;;;;5.00;55.89;100963.66;105929;1288;22690;-84
2022/03/09 07:52:34;;;;;;;9.30;5.70;;;;;;;5.11;55.99;100962.17;105467;1287;24824;-83
2022/03/09 07:55:04;;;;;;;12.00;6.90;;;;;;;5.14;55.44;100957.16;106403;1284;22690;-83
2022/03/09 07:57:32;;;;;;;13.00;6.40;;;;;;;5.25;55.51;100955.48;106650;1285;24765;-82
2022/03/09 08:00:00;;;;;;;10.10;6.00;;;;;;;5.29;54.80;100952.41;105771;1284;25318;-84
2022/03/09 08:02:38;;;;;;;8.60;5.80;;;;;;;5.21;54.58;100954.52;105464;1285;22562;-84
2022/03/09 08:05:05;;;;;;;11.20;5.40;;;;;;;5.23;54.78;100959.64;105359;1284;22560;-84
2022/03/09 08:07:32;;;;;;;10.00;5.70;;;;;;;5.25;54.34;100963.00;104954;1285;22487;-82
2022/03/09 08:09:59;;;;;;;7.40;5.40;;;;;;;5.25;54.76;100952.17;105393;1284;22755;-82
2022/03/09 08:12:28;;;;;;;15.00;5.80;;;;;;;5.45;54.71;100961.15;105294;1283;22487;-84
2022/03/09 08:14:55;;;;;;;12.30;6.10;;;;;;;5.53;54.11;100960.26;105387;1284;24280;-84
2022/03/09 08:17:22;;;;;;;7.70;5.10;;;;;;;5.57;54.11;100961.22;105229;1285;25429;-82
2022/03/09 08:19:49;;;;;;;8.50;6.00;;;;;;;5.64;53.94;100961.71;105178;1284;22541;-84
2022/03/09 08:22:16;;;;;;;12.60;5.90;;;;;;;5.77;54.16;100961.26;105211;1285;22547;-83
2022/03/09 08:24:43;;;;;;;8.90;5.10;;;;;;;5.91;54.08;100958.91;105202;1285;22713;-83
2022/03/09 08:27:11;;;;;;;9.90;5.30;;;;;;;6.01;53.33;100958.40;105226;1284;24283;-84
2022/03/09 08:29:38;;;;;;;9.00;5.90;;;;;;;6.04;53.15;100962.52;105366;1285;24258;-85
2022/03/09 08:32:05;;;;;;;11.30;4.80;;;;;;;6.14;53.17;100963.55;105303;1284;22575;-81
2022/03/09 08:34:32;;;;;;;8.70;5.10;;;;;;;6.27;53.13;100965.02;104962;1288;23146;-80
2022/03/09 08:36:59;;;;;;;7.80;4.90;;;;;;;6.35;52.70;100962.53;104932;1287;22578;-82
2022/03/09 08:39:30;;;;;;;8.60;5.20;;;;;;;6.46;52.66;100963.77;104801;1288;22557;-83
2022/03/09 08:41:57;;;;;;;8.60;4.90;;;;;;;6.59;52.44;100967.31;105011;1285;22788;-86
2022/03/09 08:44:39;;;;;;;7.30;4.90;;;;;;;6.70;51.83;100973.11;105112;1285;26639;-86
2022/03/09 08:47:06;;;;;;;6.70;4.20;;;;;;;6.77;51.63;100968.30;104833;1287;24931;-84
2022/03/09 08:49:35;;;;;;;6.80;3.80;;;;;;;6.87;51.23;100970.21;105161;1285;24244;-86
2022/03/09 08:52:04;;;;;;;4.90;3.50;;;;;;;6.87;50.42;100967.77;104989;1284;22704;-82
2022/03/09 08:54:31;;;;;;;5.90;3.70;;;;;;;6.88;50.37;100971.63;105454;1284;25386;-82
2022/03/09 08:56:58;;;;;;;5.00;3.20;;;;;;;6.97;50.63;100974.58;106522;1283;22657;-82
2022/03/09 08:59:25;;;;;;;4.10;3.30;;;;;;;7.03;50.01;100969.41;106349;1282;22745;-83
2022/03/09 09:01:52;;;;;;;5.00;3.40;;;;;;;7.11;50.04;100970.57;105565;1287;23202;-82
2022/03/09 09:04:22;;;;;;;8.30;3.20;;;;;;;7.15;49.68;100968.34;105372;1287;25395;-83
2022/03/09 09:06:50;;;;;;;8.50;3.80;;;;;;;7.25;49.91;100969.52;105265;1287;24369;-82
2022/03/09 09:09:17;;;;;;;6.90;2.70;;;;;;;7.34;49.24;100963.52;104879;1288;25533;-81
2022/03/09 09:11:45;;;;;;;4.50;3.00;;;;;;;7.31;49.07;100964.36;104838;1288;24247;-82
2022/03/09 09:14:13;;;;;;;5.10;3.50;;;;;;;7.34;48.73;100966.50;104819;1287;22547;-83
2022/03/09 09:16:47;;;;;;;6.60;3.50;;;;;;;7.34;49.15;100965.80;104692;1288;25270;-84
2022/03/09 09:19:14;;;;;;;5.30;2.80;;;;;;;7.46;49.42;100965.08;105084;1282;25315;-84
2022/03/09 09:21:45;;;;;;;5.00;3.30;;;;;;;7.56;48.91;100962.40;105593;1282;22561;-84
2022/03/09 09:24:13;;;;;;;7.70;4.60;;;;;;;7.65;48.89;100969.71;105646;1287;24272;-83
2022/03/09 09:26:43;;;;;;;6.20;3.30;;;;;;;7.79;48.88;100969.15;105527;1288;25273;-82
2022/03/09 09:29:17;;;;;;;5.00;3.70;;;;;;;7.93;48.58;100964.23;105310;1287;24345;-83
2022/03/09 09:31:49;;;;;;;5.30;3.10;;;;;;;7.98;47.65;100960.60;105138;1287;24302;-86
2022/03/09 09:34:18;;;;;;;4.80;3.30;;;;;;;7.89;47.69;100960.52;105098;1288;25340;-83
2022/03/09 09:36:47;;;;;;;4.00;2.90;;;;;;;7.97;48.04;100959.90;104847;1287;22541;-83
2022/03/09 09:39:16;;;;;;;4.30;3.10;;;;;;;8.04;47.86;100959.45;104834;1288;22732;-85
2022/03/09 09:41:46;;;;;;;4.40;3.20;;;;;;;8.06;47.67;100959.99;104869;1287;22569;-84
2022/03/09 09:44:14;;;;;;;3.90;2.80;;;;;;;8.13;47.67;100960.94;105429;1282;22582;-83
2022/03/09 09:46:43;;;;;;;5.40;3.10;;;;;;;8.14;47.38;100968.33;105397;1282;25369;-85
2022/03/09 09:49:12;;;;;;;4.70;2.80;;;;;;;8.20;47.36;100971.70;105463;1282;24277;-85
2022/03/09 09:51:41;;;;;;;5.10;3.10;;;;;;;8.25;47.49;100967.55;105398;1284;25407;-85
2022/03/09 09:54:08;;;;;;;5.80;3.40;;;;;;;8.35;47.01;100967.48;105485;1282;24254;-84
2022/03/09 09:56:41;;;;;;;5.20;3.10;;;;;;;8.40;47.03;100970.32;105392;1282;22557;-82
2022/03/09 09:59:08;;;;;;;7.50;3.30;;;;;;;8.46;46.99;100970.90;105315;1282;24295;-83
2022/03/09 10:01:36;;;;;;;6.70;3.50;;;;;;;8.54;46.88;100974.67;105211;1282;24218;-81
2022/03/09 10:04:04;;;;;;;6.70;3.00;;;;;;;8.58;46.76;100977.36;105339;1282;22554;-84
2022/03/09 10:06:31;;;;;;;7.50;3.30;;;;;;;8.57;46.40;100976.64;105758;1282;25257;-81
2022/03/09 10:09:09;;;;;;;7.70;2.90;;;;;;;8.56;46.30;100975.23;105539;1282;22694;-81
2022/03/09 10:11:47;;;;;;;6.60;3.30;;;;;;;8.62;46.20;100979.67;105429;1282;22750;-82
2022/03/09 10:14:16;;;;;;;4.20;3.00;;;;;;;8.59;46.08;100976.48;105355;1282;23852;-83
2022/03/09 10:17:09;;;;;;;5.40;3.10;;;;;;;8.57;46.18;100979.10;105446;1282;22700;-83
2022/03/09 10:19:41;;;;;;;5.10;3.10;;;;;;;8.55;46.00;100980.83;105896;1282;24231;-84
2022/03/09 10:22:31;;;;;;;5.30;3.30;;;;;;;8.40;45.83;100981.91;105808;1282;25249;-82
2022/03/09 10:25:21;;;;;;;5.10;3.00;;;;;;;8.38;46.44;100985.23;105561;1281;22630;-83
2022/03/09 10:27:50;;;;;;;8.10;3.90;;;;;;;8.33;46.17;100980.09;105362;1282;22547;-85
2022/03/09 10:30:31;;;;;;;7.90;3.80;;;;;;;8.32;46.40;100986.57;105497;1283;22644;-85
2022/03/09 10:33:00;;;;;;;5.20;3.10;;;;;;;8.26;46.20;100987.02;105603;1282;22574;-85
2022/03/09 10:35:30;;;;;;;5.00;3.40;;;;;;;8.23;46.44;100982.96;105588;1282;22633;-85
2022/03/09 10:37:59;;;;;;;5.30;3.50;;;;;;;8.27;46.41;100983.02;105196;1284;22706;-83
2022/03/09 10:40:28;;;;;;;5.90;3.20;;;;;;;8.28;46.24;100981.61;105120;1282;22676;-83
2022/03/09 10:43:17;;;;;;;7.10;3.10;;;;;;;8.25;46.23;100982.64;105328;1282;22541;-84
2022/03/09 10:46:02;;;;;;;5.90;3.10;;;;;;;8.18;45.95;100980.10;105175;1282;24343;-83
2022/03/09 10:49:00;;;;;;;6.00;3.50;;;;;;;8.08;46.16;100979.48;105374;1282;22541;-85
2022/03/09 10:51:36;;;;;;;5.30;3.00;;;;;;;7.90;46.23;100973.33;105393;1282;25496;-83
2022/03/09 10:54:08;;;;;;;6.50;2.70;;;;;;;7.88;46.37;100976.27;105423;1282;22619;-85
2022/03/09 10:56:36;;;;;;;4.60;3.10;;;;;;;7.84;46.57;100975.88;105489;1282;22899;-85
2022/03/09 10:59:15;;;;;;;4.70;3.20;;;;;;;7.77;46.63;100980.19;106579;1282;25164;-84
2022/03/09 11:01:44;;;;;;;6.70;3.00;;;;;;;7.66;46.63;100976.55;105553;1290;25879;-85
2022/03/09 11:04:11;;;;;;;6.40;3.80;;;;;;;7.59;46.84;100977.54;105440;1291;22580;-83
2022/03/09 11:06:46;;;;;;;5.90;3.40;;;;;;;7.59;47.18;100978.21;106347;1290;22757;-84
2022/03/09 11:09:16;;;;;;;6.60;3.50;;;;;;;7.64;46.98;100975.81;105711;1290;23517;-85
2022/03/09 11:11:46;;;;;;;8.10;3.00;;;;;;;7.60;46.94;100975.07;105029;1290;23970;-85
2022/03/09 11:14:15;;;;;;;4.40;2.60;;;;;;;7.63;47.14;100976.52;104836;1290;24940;-84
2022/03/09 11:16:42;;;;;;;4.10;2.50;;;;;;;7.69;47.07;100976.94;104773;1291;22588;-83
2022/03/09 11:19:13;;;;;;;4.90;2.90;;;;;;;7.72;47.10;100977.85;104842;1282;22592;-85
2022/03/09 11:21:41;;;;;;;4.20;2.50;;;;;;;7.74;46.88;100980.69;104957;1282;25382;-82
2022/03/09 11:24:14;;;;;;;5.10;2.90;;;;;;;7.75;47.12;100979.98;105187;1283;22703;-84